sensor_id;sensor_type;location;lat;lon;timestamp;pressure;altitude;pressure_sealevel;temperature;humidity
11415;BME280;5763;42.714;23.244;2023-06-22T00:02:01;95017.84;;;20.97;71.83
11415;BME280;5763;42.714;23.244;2023-06-22T00:04:28;95016.56;;;20.87;72.42
11415;BME280;5763;42.714;23.244;2023-06-22T00:06:55;95009.25;;;20.79;72.83
11415;BME280;5763;42.714;23.244;2023-06-22T00:09:22;94999.13;;;20.81;73.19
11415;BME280;5763;42.714;23.244;2023-06-22T00:11:49;95010.00;;;20.68;73.08
11415;BME280;5763;42.714;23.244;2023-06-22T00:14:15;94996.66;;;20.67;73.27
11415;BME280;5763;42.714;23.244;2023-06-22T00:16:44;94998.66;;;20.66;73.52
11415;BME280;5763;42.714;23.244;2023-06-22T00:19:14;94979.69;;;20.65;74.13
11415;BME280;5763;42.714;23.244;2023-06-22T00:21:40;94981.69;;;20.70;74.58
11415;BME280;5763;42.714;23.244;2023-06-22T00:24:07;94979.66;;;20.76;74.69
11415;BME280;5763;42.714;23.244;2023-06-22T00:26:34;94970.31;;;20.73;75.27
11415;BME280;5763;42.714;23.244;2023-06-22T00:29:01;94975.63;;;20.77;75.40
11415;BME280;5763;42.714;23.244;2023-06-22T00:31:28;94963.25;;;20.56;76.10
11415;BME280;5763;42.714;23.244;2023-06-22T00:33:56;94978.69;;;20.68;76.58
11415;BME280;5763;42.714;23.244;2023-06-22T00:36:23;94976.13;;;20.70;76.44
11415;BME280;5763;42.714;23.244;2023-06-22T00:38:50;94979.41;;;20.68;76.73
11415;BME280;5763;42.714;23.244;2023-06-22T00:41:17;94986.53;;;20.64;77.27
11415;BME280;5763;42.714;23.244;2023-06-22T00:43:45;94978.94;;;20.64;76.98
11415;BME280;5763;42.714;23.244;2023-06-22T00:46:12;94971.09;;;20.63;77.54
11415;BME280;5763;42.714;23.244;2023-06-22T00:48:39;94976.41;;;20.61;77.15
11415;BME280;5763;42.714;23.244;2023-06-22T00:51:08;94981.22;;;20.60;76.63
11415;BME280;5763;42.714;23.244;2023-06-22T00:53:36;94975.91;;;20.62;76.19
11415;BME280;5763;42.714;23.244;2023-06-22T00:56:04;94987.03;;;20.62;76.17
11415;BME280;5763;42.714;23.244;2023-06-22T00:58:31;94982.72;;;20.61;76.86
11415;BME280;5763;42.714;23.244;2023-06-22T01:00:58;94991.84;;;20.56;77.12
11415;BME280;5763;42.714;23.244;2023-06-22T01:03:26;94999.41;;;20.56;77.82
11415;BME280;5763;42.714;23.244;2023-06-22T01:05:56;94994.63;;;20.56;77.65
11415;BME280;5763;42.714;23.244;2023-06-22T01:08:31;94990.59;;;20.52;78.48
11415;BME280;5763;42.714;23.244;2023-06-22T01:11:08;94990.84;;;20.37;79.55
11415;BME280;5763;42.714;23.244;2023-06-22T01:13:39;94991.34;;;20.41;79.52
11415;BME280;5763;42.714;23.244;2023-06-22T01:16:12;94988.06;;;20.37;79.68
11415;BME280;5763;42.714;23.244;2023-06-22T01:18:43;94984.50;;;20.42;79.64
11415;BME280;5763;42.714;23.244;2023-06-22T01:21:14;94990.06;;;20.42;79.91
11415;BME280;5763;42.714;23.244;2023-06-22T01:23:53;94988.59;;;20.36;79.91
11415;BME280;5763;42.714;23.244;2023-06-22T01:26:29;94990.59;;;20.35;78.27
11415;BME280;5763;42.714;23.244;2023-06-22T01:29:03;94994.91;;;20.31;77.29
11415;BME280;5763;42.714;23.244;2023-06-22T01:31:31;94994.13;;;20.25;77.07
11415;BME280;5763;42.714;23.244;2023-06-22T01:34:02;95005.00;;;20.23;77.10
11415;BME280;5763;42.714;23.244;2023-06-22T01:36:30;95008.00;;;20.25;77.19
11415;BME280;5763;42.714;23.244;2023-06-22T01:38:58;95003.22;;;20.31;77.80
11415;BME280;5763;42.714;23.244;2023-06-22T01:41:27;95015.59;;;20.30;78.24
11415;BME280;5763;42.714;23.244;2023-06-22T01:43:56;95006.50;;;20.35;78.36
11415;BME280;5763;42.714;23.244;2023-06-22T01:46:24;94997.16;;;20.38;78.27
11415;BME280;5763;42.714;23.244;2023-06-22T01:48:52;95002.97;;;20.34;78.63
11415;BME280;5763;42.714;23.244;2023-06-22T01:51:19;95013.59;;;20.36;78.75
11415;BME280;5763;42.714;23.244;2023-06-22T01:53:46;95021.66;;;20.34;78.91
11415;BME280;5763;42.714;23.244;2023-06-22T01:56:14;95020.66;;;20.26;79.22
11415;BME280;5763;42.714;23.244;2023-06-22T01:58:48;95023.44;;;20.26;79.49
11415;BME280;5763;42.714;23.244;2023-06-22T02:01:20;95023.19;;;20.24;79.86
11415;BME280;5763;42.714;23.244;2023-06-22T02:03:57;95036.56;;;20.25;79.49
11415;BME280;5763;42.714;23.244;2023-06-22T02:06:31;95036.34;;;20.23;79.53
11415;BME280;5763;42.714;23.244;2023-06-22T02:09:02;95035.31;;;20.15;80.54
11415;BME280;5763;42.714;23.244;2023-06-22T02:11:33;95022.66;;;20.09;80.34
11415;BME280;5763;42.714;23.244;2023-06-22T02:14:01;95021.91;;;20.19;80.63
11415;BME280;5763;42.714;23.244;2023-06-22T02:16:31;95032.53;;;20.21;80.58
11415;BME280;5763;42.714;23.244;2023-06-22T02:19:01;95028.22;;;20.20;80.88
11415;BME280;5763;42.714;23.244;2023-06-22T02:21:28;95019.63;;;20.18;80.84
11415;BME280;5763;42.714;23.244;2023-06-22T02:23:55;95015.34;;;20.17;81.43
11415;BME280;5763;42.714;23.244;2023-06-22T02:26:23;95018.63;;;20.15;81.33
11415;BME280;5763;42.714;23.244;2023-06-22T02:28:51;95018.13;;;20.17;81.22
11415;BME280;5763;42.714;23.244;2023-06-22T02:31:18;95020.38;;;20.07;82.33
11415;BME280;5763;42.714;23.244;2023-06-22T02:33:45;95014.03;;;20.07;82.39
11415;BME280;5763;42.714;23.244;2023-06-22T02:36:15;95013.53;;;20.03;81.33
11415;BME280;5763;42.714;23.244;2023-06-22T02:38:43;95019.34;;;20.05;80.88
11415;BME280;5763;42.714;23.244;2023-06-22T02:41:14;95012.00;;;20.02;81.63
11415;BME280;5763;42.714;23.244;2023-06-22T02:43:44;95005.19;;;19.97;82.17
11415;BME280;5763;42.714;23.244;2023-06-22T02:46:12;95014.78;;;19.96;80.81
11415;BME280;5763;42.714;23.244;2023-06-22T02:48:39;95006.44;;;19.91;80.05
11415;BME280;5763;42.714;23.244;2023-06-22T02:51:06;95012.00;;;19.91;79.48
11415;BME280;5763;42.714;23.244;2023-06-22T02:53:34;95015.53;;;19.86;79.64
11415;BME280;5763;42.714;23.244;2023-06-22T02:56:02;95010.22;;;19.88;80.79
11415;BME280;5763;42.714;23.244;2023-06-22T02:58:30;95011.72;;;19.89;81.23
11415;BME280;5763;42.714;23.244;2023-06-22T03:01:04;94926.25;;;19.23;80.44
11415;BME280;5763;42.714;23.244;2023-06-22T03:03:31;95016.28;;;19.86;80.49
11415;BME280;5763;42.714;23.244;2023-06-22T03:05:59;95012.00;;;19.91;80.39
11415;BME280;5763;42.714;23.244;2023-06-22T03:08:27;95023.38;;;19.87;80.39
11415;BME280;5763;42.714;23.244;2023-06-22T03:10:56;95030.94;;;19.87;80.41
11415;BME280;5763;42.714;23.244;2023-06-22T03:13:23;95036.50;;;19.92;80.00
11415;BME280;5763;42.714;23.244;2023-06-22T03:15:50;95035.22;;;19.88;80.28
11415;BME280;5763;42.714;23.244;2023-06-22T03:18:18;95036.22;;;19.90;80.19
11415;BME280;5763;42.714;23.244;2023-06-22T03:20:45;95040.03;;;19.87;80.46
11415;BME280;5763;42.714;23.244;2023-06-22T03:23:12;95049.13;;;19.99;80.20
11415;BME280;5763;42.714;23.244;2023-06-22T03:25:38;95043.34;;;19.97;80.23
11415;BME280;5763;42.714;23.244;2023-06-22T03:28:07;95048.13;;;19.96;80.54
11415;BME280;5763;42.714;23.244;2023-06-22T03:30:33;95051.88;;;19.88;81.12
11415;BME280;5763;42.714;23.244;2023-06-22T03:33:00;95049.63;;;19.92;81.56
11415;BME280;5763;42.714;23.244;2023-06-22T03:35:27;95061.03;;;20.05;81.35
11415;BME280;5763;42.714;23.244;2023-06-22T03:37:54;95061.78;;;20.05;81.76
11415;BME280;5763;42.714;23.244;2023-06-22T03:40:20;95029.41;;;19.80;81.50
11415;BME280;5763;42.714;23.244;2023-06-22T03:42:47;95066.06;;;20.01;81.71
11415;BME280;5763;42.714;23.244;2023-06-22T03:45:15;95064.56;;;20.00;82.17
11415;BME280;5763;42.714;23.244;2023-06-22T03:47:42;95064.03;;;20.01;82.46
11415;BME280;5763;42.714;23.244;2023-06-22T03:50:09;95073.91;;;20.02;83.01
11415;BME280;5763;42.714;23.244;2023-06-22T03:52:36;95084.56;;;20.09;81.82
11415;BME280;5763;42.714;23.244;2023-06-22T03:55:04;95076.22;;;20.15;81.96
11415;BME280;5763;42.714;23.244;2023-06-22T03:57:30;95069.41;;;20.16;82.50
11415;BME280;5763;42.714;23.244;2023-06-22T03:59:57;95061.81;;;20.16;82.47
11415;BME280;5763;42.714;23.244;2023-06-22T04:02:26;95061.56;;;20.09;81.83
11415;BME280;5763;42.714;23.244;2023-06-22T04:04:54;95062.84;;;20.13;82.21
11415;BME280;5763;42.714;23.244;2023-06-22T04:07:20;95059.31;;;20.18;82.02
11415;BME280;5763;42.714;23.244;2023-06-22T04:09:47;95051.25;;;20.26;81.58
11415;BME280;5763;42.714;23.244;2023-06-22T04:12:14;95054.03;;;20.26;81.58
11415;BME280;5763;42.714;23.244;2023-06-22T04:14:40;95057.06;;;20.28;81.12
11415;BME280;5763;42.714;23.244;2023-06-22T04:17:07;95056.53;;;20.35;80.72
11415;BME280;5763;42.714;23.244;2023-06-22T04:19:35;95045.69;;;20.37;80.97
11415;BME280;5763;42.714;23.244;2023-06-22T04:22:02;95046.44;;;20.37;81.02
11415;BME280;5763;42.714;23.244;2023-06-22T04:24:29;95019.91;;;20.14;79.84
11415;BME280;5763;42.714;23.244;2023-06-22T04:26:56;95039.63;;;20.33;80.21
11415;BME280;5763;42.714;23.244;2023-06-22T04:29:22;95042.91;;;20.26;80.49
11415;BME280;5763;42.714;23.244;2023-06-22T04:31:54;95055.03;;;20.34;80.67
11415;BME280;5763;42.714;23.244;2023-06-22T04:34:23;95054.03;;;20.37;80.09
11415;BME280;5763;42.714;23.244;2023-06-22T04:36:53;95046.19;;;20.35;80.08
11415;BME280;5763;42.714;23.244;2023-06-22T04:39:20;95048.72;;;20.44;80.04
11415;BME280;5763;42.714;23.244;2023-06-22T04:41:47;95056.56;;;20.51;79.67
11415;BME280;5763;42.714;23.244;2023-06-22T04:44:16;95056.31;;;20.55;80.05
11415;BME280;5763;42.714;23.244;2023-06-22T04:46:50;95060.84;;;20.52;79.40
11415;BME280;5763;42.714;23.244;2023-06-22T04:49:19;95073.47;;;20.53;79.72
11415;BME280;5763;42.714;23.244;2023-06-22T04:51:47;95070.22;;;20.55;79.73
11415;BME280;5763;42.714;23.244;2023-06-22T04:54:15;95060.09;;;20.63;79.82
11415;BME280;5763;42.714;23.244;2023-06-22T04:56:42;95066.66;;;20.71;79.10
11415;BME280;5763;42.714;23.244;2023-06-22T04:59:12;95057.56;;;20.76;79.57
11415;BME280;5763;42.714;23.244;2023-06-22T05:01:39;95049.22;;;20.81;79.86
11415;BME280;5763;42.714;23.244;2023-06-22T05:04:07;95051.22;;;20.81;80.25
11415;BME280;5763;42.714;23.244;2023-06-22T05:06:34;95052.25;;;20.83;80.49
11415;BME280;5763;42.714;23.244;2023-06-22T05:09:02;95049.97;;;20.87;80.70
11415;BME280;5763;42.714;23.244;2023-06-22T05:11:32;95053.53;;;20.93;80.76
11415;BME280;5763;42.714;23.244;2023-06-22T05:13:59;95054.78;;;20.98;80.85
11415;BME280;5763;42.714;23.244;2023-06-22T05:16:27;95052.25;;;20.94;80.32
11415;BME280;5763;42.714;23.244;2023-06-22T05:18:55;95052.25;;;21.05;79.79
11415;BME280;5763;42.714;23.244;2023-06-22T05:21:23;95052.00;;;21.03;80.15
11415;BME280;5763;42.714;23.244;2023-06-22T05:23:51;95049.19;;;21.03;80.52
11415;BME280;5763;42.714;23.244;2023-06-22T05:26:19;95067.66;;;21.17;80.30
11415;BME280;5763;42.714;23.244;2023-06-22T05:28:48;95067.88;;;21.19;80.08
11415;BME280;5763;42.714;23.244;2023-06-22T05:31:16;95077.00;;;21.25;79.88
11415;BME280;5763;42.714;23.244;2023-06-22T05:33:45;95070.91;;;21.27;79.56
11415;BME280;5763;42.714;23.244;2023-06-22T05:36:13;95076.75;;;21.29;79.61
11415;BME280;5763;42.714;23.244;2023-06-22T05:38:40;95074.69;;;21.35;79.49
11415;BME280;5763;42.714;23.244;2023-06-22T05:41:08;95071.69;;;21.33;79.75
11415;BME280;5763;42.714;23.244;2023-06-22T05:43:34;95087.09;;;21.39;79.67
11415;BME280;5763;42.714;23.244;2023-06-22T05:46:03;95083.03;;;21.46;79.49
11415;BME280;5763;42.714;23.244;2023-06-22T05:48:31;95086.31;;;21.50;79.56
11415;BME280;5763;42.714;23.244;2023-06-22T05:50:58;95088.59;;;21.51;79.64
11415;BME280;5763;42.714;23.244;2023-06-22T05:53:25;95091.59;;;21.59;79.56
11415;BME280;5763;42.714;23.244;2023-06-22T05:55:51;95085.50;;;21.60;78.97
11415;BME280;5763;42.714;23.244;2023-06-22T05:58:18;95095.13;;;21.65;78.87
11415;BME280;5763;42.714;23.244;2023-06-22T06:00:45;95089.28;;;21.63;78.22
11415;BME280;5763;42.714;23.244;2023-06-22T06:03:14;95085.69;;;21.79;77.40
11415;BME280;5763;42.714;23.244;2023-06-22T06:05:42;95070.28;;;21.67;77.21
11415;BME280;5763;42.714;23.244;2023-06-22T06:08:13;95043.81;;;21.38;77.13
11415;BME280;5763;42.714;23.244;2023-06-22T06:10:40;94975.84;;;21.01;76.87
11415;BME280;5763;42.714;23.244;2023-06-22T06:13:07;95033.06;;;21.70;75.85
11415;BME280;5763;42.714;23.244;2023-06-22T06:15:34;95108.88;;;22.09;75.95
11415;BME280;5763;42.714;23.244;2023-06-22T06:18:01;95059.75;;;22.00;76.16
11415;BME280;5763;42.714;23.244;2023-06-22T06:20:32;95076.91;;;22.15;75.99
11415;BME280;5763;42.714;23.244;2023-06-22T06:22:59;95077.13;;;22.23;76.50
11415;BME280;5763;42.714;23.244;2023-06-22T06:25:27;95075.06;;;22.29;75.79
11415;BME280;5763;42.714;23.244;2023-06-22T06:27:54;95082.13;;;22.35;75.75
11415;BME280;5763;42.714;23.244;2023-06-22T06:30:21;95078.75;;;22.42;75.94
11415;BME280;5763;42.714;23.244;2023-06-22T06:32:49;95080.28;;;22.49;76.14
11415;BME280;5763;42.714;23.244;2023-06-22T06:35:16;95071.09;;;22.59;76.24
11415;BME280;5763;42.714;23.244;2023-06-22T06:37:47;95078.06;;;22.71;74.69
11415;BME280;5763;42.714;23.244;2023-06-22T06:40:14;95069.66;;;22.77;74.06
11415;BME280;5763;42.714;23.244;2023-06-22T06:42:43;95065.28;;;22.87;73.81
11415;BME280;5763;42.714;23.244;2023-06-22T06:45:11;95067.59;;;23.07;73.33
11415;BME280;5763;42.714;23.244;2023-06-22T06:47:38;95060.16;;;23.20;73.59
11415;BME280;5763;42.714;23.244;2023-06-22T06:50:06;95069.63;;;23.36;72.62
11415;BME280;5763;42.714;23.244;2023-06-22T06:52:33;95058.03;;;23.50;72.28
11415;BME280;5763;42.714;23.244;2023-06-22T06:55:02;95058.84;;;23.69;71.79
11415;BME280;5763;42.714;23.244;2023-06-22T06:57:30;95058.41;;;23.84;71.67
11415;BME280;5763;42.714;23.244;2023-06-22T06:59:59;95059.19;;;24.03;70.42
11415;BME280;5763;42.714;23.244;2023-06-22T07:02:28;95056.56;;;24.10;68.88
11415;BME280;5763;42.714;23.244;2023-06-22T07:04:56;95058.28;;;24.32;68.42
11415;BME280;5763;42.714;23.244;2023-06-22T07:07:24;95055.31;;;24.43;68.08
11415;BME280;5763;42.714;23.244;2023-06-22T07:09:51;95057.50;;;24.50;65.30
11415;BME280;5763;42.714;23.244;2023-06-22T07:12:19;95060.00;;;24.53;65.32
11415;BME280;5763;42.714;23.244;2023-06-22T07:14:46;95054.94;;;24.52;66.34
11415;BME280;5763;42.714;23.244;2023-06-22T07:17:13;95061.16;;;24.63;67.20
11415;BME280;5763;42.714;23.244;2023-06-22T07:19:41;95066.66;;;24.69;68.69
11415;BME280;5763;42.714;23.244;2023-06-22T07:22:08;95057.72;;;24.70;68.02
11415;BME280;5763;42.714;23.244;2023-06-22T07:24:35;95063.53;;;24.72;67.56
11415;BME280;5763;42.714;23.244;2023-06-22T07:27:02;95063.91;;;24.82;67.20
11415;BME280;5763;42.714;23.244;2023-06-22T07:29:33;95059.50;;;24.86;67.46
11415;BME280;5763;42.714;23.244;2023-06-22T07:32:01;95073.56;;;24.99;66.67
11415;BME280;5763;42.714;23.244;2023-06-22T07:34:30;95069.91;;;25.04;66.98
11415;BME280;5763;42.714;23.244;2023-06-22T07:36:57;95068.72;;;25.13;67.14
11415;BME280;5763;42.714;23.244;2023-06-22T07:39:23;95071.97;;;25.17;66.82
11415;BME280;5763;42.714;23.244;2023-06-22T07:41:51;95068.19;;;25.14;67.05
11415;BME280;5763;42.714;23.244;2023-06-22T07:44:19;95065.28;;;25.20;68.27
11415;BME280;5763;42.714;23.244;2023-06-22T07:46:47;95073.56;;;25.12;66.71
11415;BME280;5763;42.714;23.244;2023-06-22T07:49:14;95076.38;;;25.12;67.82
11415;BME280;5763;42.714;23.244;2023-06-22T07:51:41;95078.84;;;25.16;68.52
11415;BME280;5763;42.714;23.244;2023-06-22T07:54:09;95071.41;;;25.18;69.01
11415;BME280;5763;42.714;23.244;2023-06-22T07:56:36;95073.47;;;25.18;69.12
11415;BME280;5763;42.714;23.244;2023-06-22T07:59:03;95068.94;;;25.15;69.62
11415;BME280;5763;42.714;23.244;2023-06-22T08:01:30;95076.38;;;25.12;70.64
11415;BME280;5763;42.714;23.244;2023-06-22T08:03:58;95049.97;;;25.21;70.72
11415;BME280;5763;42.714;23.244;2023-06-22T08:06:25;95055.41;;;25.32;70.28
11415;BME280;5763;42.714;23.244;2023-06-22T08:08:52;95058.13;;;25.37;69.41
11415;BME280;5763;42.714;23.244;2023-06-22T08:11:19;95053.47;;;25.40;69.08
11415;BME280;5763;42.714;23.244;2023-06-22T08:13:47;95053.38;;;25.45;70.04
11415;BME280;5763;42.714;23.244;2023-06-22T08:16:14;95047.44;;;25.62;69.83
11415;BME280;5763;42.714;23.244;2023-06-22T08:18:41;95043.53;;;25.78;68.39
11415;BME280;5763;42.714;23.244;2023-06-22T08:21:09;95042.03;;;25.90;67.31
11415;BME280;5763;42.714;23.244;2023-06-22T08:23:37;95037.28;;;25.98;67.10
11415;BME280;5763;42.714;23.244;2023-06-22T08:26:03;95039.44;;;26.05;68.04
11415;BME280;5763;42.714;23.244;2023-06-22T08:28:30;95041.91;;;26.08;68.13
11415;BME280;5763;42.714;23.244;2023-06-22T08:30:57;95040.50;;;26.15;67.24
11415;BME280;5763;42.714;23.244;2023-06-22T08:33:24;95040.59;;;26.22;68.07
11415;BME280;5763;42.714;23.244;2023-06-22T08:35:54;95039.94;;;26.29;68.00
11415;BME280;5763;42.714;23.244;2023-06-22T08:38:22;95038.28;;;26.34;66.75
11415;BME280;5763;42.714;23.244;2023-06-22T08:40:49;95044.03;;;26.28;65.77
11415;BME280;5763;42.714;23.244;2023-06-22T08:43:15;95038.59;;;26.10;63.42
11415;BME280;5763;42.714;23.244;2023-06-22T08:45:42;95037.91;;;26.04;64.29
11415;BME280;5763;42.714;23.244;2023-06-22T08:48:09;95035.78;;;26.10;65.24
11415;BME280;5763;42.714;23.244;2023-06-22T08:50:36;95039.16;;;26.29;66.55
11415;BME280;5763;42.714;23.244;2023-06-22T08:53:03;95026.16;;;26.39;66.37
11415;BME280;5763;42.714;23.244;2023-06-22T08:55:32;95028.53;;;26.48;66.10
11415;BME280;5763;42.714;23.244;2023-06-22T08:57:59;95022.13;;;26.60;65.89
11415;BME280;5763;42.714;23.244;2023-06-22T09:00:25;95023.91;;;26.71;62.70
11415;BME280;5763;42.714;23.244;2023-06-22T09:02:54;95010.84;;;26.73;62.47
11415;BME280;5763;42.714;23.244;2023-06-22T09:05:24;95021.03;;;26.84;62.04
11415;BME280;5763;42.714;23.244;2023-06-22T09:07:51;95017.59;;;26.98;57.85
11415;BME280;5763;42.714;23.244;2023-06-22T09:10:20;95023.78;;;26.97;57.78
11415;BME280;5763;42.714;23.244;2023-06-22T09:12:48;95027.94;;;27.03;55.61
11415;BME280;5763;42.714;23.244;2023-06-22T09:15:15;95011.13;;;27.11;55.82
11415;BME280;5763;42.714;23.244;2023-06-22T09:17:42;95024.00;;;27.19;56.65
11415;BME280;5763;42.714;23.244;2023-06-22T09:20:09;95016.91;;;27.26;57.60
11415;BME280;5763;42.714;23.244;2023-06-22T09:22:36;95012.81;;;27.34;55.98
11415;BME280;5763;42.714;23.244;2023-06-22T09:25:04;95017.22;;;27.43;56.30
11415;BME280;5763;42.714;23.244;2023-06-22T09:27:31;95017.88;;;27.56;57.72
11415;BME280;5763;42.714;23.244;2023-06-22T09:29:59;95026.75;;;27.68;56.42
11415;BME280;5763;42.714;23.244;2023-06-22T09:32:26;95030.16;;;27.74;55.49
11415;BME280;5763;42.714;23.244;2023-06-22T09:34:52;95021.03;;;27.81;55.20
11415;BME280;5763;42.714;23.244;2023-06-22T09:37:19;95031.00;;;27.89;56.04
11415;BME280;5763;42.714;23.244;2023-06-22T09:39:46;95029.00;;;27.97;53.52
11415;BME280;5763;42.714;23.244;2023-06-22T09:42:12;95025.66;;;28.06;51.89
11415;BME280;5763;42.714;23.244;2023-06-22T09:44:39;95020.44;;;28.18;53.08
11415;BME280;5763;42.714;23.244;2023-06-22T09:47:08;95018.19;;;28.24;50.66
11415;BME280;5763;42.714;23.244;2023-06-22T09:49:34;95017.09;;;28.27;50.95
11415;BME280;5763;42.714;23.244;2023-06-22T09:52:01;95013.59;;;28.41;51.42
11415;BME280;5763;42.714;23.244;2023-06-22T09:54:28;95008.91;;;28.44;52.67
11415;BME280;5763;42.714;23.244;2023-06-22T09:56:54;95010.06;;;28.56;51.90
11415;BME280;5763;42.714;23.244;2023-06-22T09:59:21;95000.50;;;28.66;52.27
11415;BME280;5763;42.714;23.244;2023-06-22T10:01:48;95005.19;;;28.79;52.60
11415;BME280;5763;42.714;23.244;2023-06-22T10:04:16;95002.00;;;28.90;53.57
11415;BME280;5763;42.714;23.244;2023-06-22T10:06:43;95006.75;;;29.02;50.53
11415;BME280;5763;42.714;23.244;2023-06-22T10:09:10;95004.47;;;29.16;46.82
11415;BME280;5763;42.714;23.244;2023-06-22T10:11:36;95012.22;;;29.23;45.90
11415;BME280;5763;42.714;23.244;2023-06-22T10:14:04;95004.13;;;29.27;45.47
11415;BME280;5763;42.714;23.244;2023-06-22T10:16:31;94997.31;;;29.37;45.05
11415;BME280;5763;42.714;23.244;2023-06-22T10:18:58;95001.47;;;29.44;45.56
11415;BME280;5763;42.714;23.244;2023-06-22T10:21:26;94991.88;;;29.54;45.29
11415;BME280;5763;42.714;23.244;2023-06-22T10:23:54;94991.66;;;29.67;43.66
11415;BME280;5763;42.714;23.244;2023-06-22T10:26:20;94997.25;;;29.82;44.01
11415;BME280;5763;42.714;23.244;2023-06-22T10:28:47;94987.06;;;29.87;46.29
11415;BME280;5763;42.714;23.244;2023-06-22T10:31:14;94999.84;;;29.95;44.98
11415;BME280;5763;42.714;23.244;2023-06-22T10:33:42;94990.59;;;30.02;43.79
11415;BME280;5763;42.714;23.244;2023-06-22T10:36:09;94991.13;;;30.16;42.39
11415;BME280;5763;42.714;23.244;2023-06-22T10:38:37;94983.63;;;30.03;41.83
11415;BME280;5763;42.714;23.244;2023-06-22T10:41:04;94989.22;;;30.26;41.25
11415;BME280;5763;42.714;23.244;2023-06-22T10:43:31;94985.19;;;30.36;41.94
11415;BME280;5763;42.714;23.244;2023-06-22T10:45:58;94979.44;;;30.51;41.67
11415;BME280;5763;42.714;23.244;2023-06-22T10:48:25;94978.09;;;30.60;41.51
11415;BME280;5763;42.714;23.244;2023-06-22T10:50:52;94971.81;;;30.69;41.18
11415;BME280;5763;42.714;23.244;2023-06-22T10:53:20;94971.56;;;30.82;42.51
11415;BME280;5763;42.714;23.244;2023-06-22T10:55:48;94973.91;;;30.93;42.39
11415;BME280;5763;42.714;23.244;2023-06-22T10:58:17;94982.06;;;30.89;39.39
11415;BME280;5763;42.714;23.244;2023-06-22T11:00:44;94974.28;;;30.97;39.24
11415;BME280;5763;42.714;23.244;2023-06-22T11:03:10;94969.94;;;30.96;40.05
11415;BME280;5763;42.714;23.244;2023-06-22T11:05:39;94964.56;;;31.07;40.09
11415;BME280;5763;42.714;23.244;2023-06-22T11:08:06;94971.47;;;31.14;41.71
11415;BME280;5763;42.714;23.244;2023-06-22T11:10:33;94975.47;;;31.11;39.61
11415;BME280;5763;42.714;23.244;2023-06-22T11:13:01;94972.13;;;31.29;40.40
11415;BME280;5763;42.714;23.244;2023-06-22T11:15:29;94970.22;;;31.32;38.99
11415;BME280;5763;42.714;23.244;2023-06-22T11:17:56;94956.22;;;31.34;39.47
11415;BME280;5763;42.714;23.244;2023-06-22T11:20:23;94957.91;;;31.37;39.43
11415;BME280;5763;42.714;23.244;2023-06-22T11:22:50;94957.22;;;31.29;39.16
11415;BME280;5763;42.714;23.244;2023-06-22T11:25:16;94956.47;;;31.28;39.56
11415;BME280;5763;42.714;23.244;2023-06-22T11:27:43;94956.00;;;31.39;39.69
11415;BME280;5763;42.714;23.244;2023-06-22T11:30:13;94944.53;;;31.13;38.26
11415;BME280;5763;42.714;23.244;2023-06-22T11:32:40;94952.66;;;31.09;37.77
11415;BME280;5763;42.714;23.244;2023-06-22T11:35:07;94956.06;;;31.07;37.61
11415;BME280;5763;42.714;23.244;2023-06-22T11:37:34;94954.34;;;30.87;38.26
11415;BME280;5763;42.714;23.244;2023-06-22T11:40:01;94950.09;;;30.47;38.89
11415;BME280;5763;42.714;23.244;2023-06-22T11:42:30;94970.81;;;30.17;40.93
11415;BME280;5763;42.714;23.244;2023-06-22T11:44:57;94952.88;;;29.83;45.05
11415;BME280;5763;42.714;23.244;2023-06-22T11:47:25;94951.41;;;29.52;48.48
11415;BME280;5763;42.714;23.244;2023-06-22T11:49:52;94940.56;;;29.18;51.52
11415;BME280;5763;42.714;23.244;2023-06-22T11:52:19;94938.53;;;29.04;53.33
11415;BME280;5763;42.714;23.244;2023-06-22T11:54:46;94946.78;;;28.87;54.54
11415;BME280;5763;42.714;23.244;2023-06-22T11:57:13;94955.81;;;28.70;56.47
11415;BME280;5763;42.714;23.244;2023-06-22T11:59:40;94958.59;;;28.55;57.78
11415;BME280;5763;42.714;23.244;2023-06-22T12:02:07;94942.19;;;28.31;59.34
11415;BME280;5763;42.714;23.244;2023-06-22T12:04:36;94953.66;;;28.26;61.30
11415;BME280;5763;42.714;23.244;2023-06-22T12:07:03;94962.22;;;28.13;62.23
11415;BME280;5763;42.714;23.244;2023-06-22T12:09:30;94956.38;;;27.96;61.96
11415;BME280;5763;42.714;23.244;2023-06-22T12:11:57;94965.88;;;27.85;61.07
11415;BME280;5763;42.714;23.244;2023-06-22T12:14:23;94983.75;;;27.60;58.16
11415;BME280;5763;42.714;23.244;2023-06-22T12:16:50;94989.13;;;27.22;61.60
11415;BME280;5763;42.714;23.244;2023-06-22T12:19:17;94999.28;;;27.05;66.17
11415;BME280;5763;42.714;23.244;2023-06-22T12:21:45;95010.84;;;26.73;66.36
11415;BME280;5763;42.714;23.244;2023-06-22T12:24:12;95013.31;;;26.43;71.51
11415;BME280;5763;42.714;23.244;2023-06-22T12:26:38;95008.28;;;25.95;76.69
11415;BME280;5763;42.714;23.244;2023-06-22T12:29:05;95017.25;;;25.29;73.37
11415;BME280;5763;42.714;23.244;2023-06-22T12:31:32;94995.03;;;24.60;67.40
11415;BME280;5763;42.714;23.244;2023-06-22T12:33:59;94968.56;;;24.11;68.03
11415;BME280;5763;42.714;23.244;2023-06-22T12:36:25;94963.44;;;23.97;62.88
11415;BME280;5763;42.714;23.244;2023-06-22T12:38:54;94969.03;;;23.97;64.42
11415;BME280;5763;42.714;23.244;2023-06-22T12:41:20;94958.22;;;23.88;67.54
11415;BME280;5763;42.714;23.244;2023-06-22T12:43:47;94966.59;;;23.88;69.65
11415;BME280;5763;42.714;23.244;2023-06-22T12:46:14;94969.03;;;23.78;70.97
11415;BME280;5763;42.714;23.244;2023-06-22T12:48:41;94974.91;;;23.75;72.50
11415;BME280;5763;42.714;23.244;2023-06-22T12:51:08;94973.31;;;23.79;71.70
11415;BME280;5763;42.714;23.244;2023-06-22T12:53:35;94984.94;;;23.89;68.39
11415;BME280;5763;42.714;23.244;2023-06-22T12:56:04;94981.50;;;23.96;68.91
11415;BME280;5763;42.714;23.244;2023-06-22T12:58:30;94980.69;;;24.01;73.94
11415;BME280;5763;42.714;23.244;2023-06-22T13:00:57;94973.78;;;24.02;74.97
11415;BME280;5763;42.714;23.244;2023-06-22T13:03:24;94979.00;;;24.11;75.38